Panama, Brazil
Current Conditions -  °F | °C
As of 10:00 PM on Saturday 25 Oct 2014 (Local Time) from SBUL Reporting Station
Light Rain Light Rain  
Wind Chill: 66°   Ceiling: 300
Heat Index: 66°   Visibility: 6mi
Dew Point: 63°   Wind: 6mph
Humidity: 88%   Direction: 50°NE
Pressure: 30.09"   Gusts: NA
Location:  18.18°S, 49.35°W
Report Text: SBUL 260000Z 05005KT 9999 -RA BKN003 OVC080 19/17 Q1019
Loading
Personal Weather Stations






























Interactive Weather Map
Tropical Storm Tracking
New forecast layout! Learn more

10-Day Weather Forecast

Advertisements
Track Severe Weather on mobile